Time;durP1;ratioP1;P1;durP2;ratioP2;P2;SDS_P1;SDS_P2;PMS_P1;PMS_P2;Temp;Humidity;BMP_temperature;BMP_pressure;BME280_temperature;BME280_humidity;BME280_pressure;Samples;Min_cycle;Max_cycle;Signal;HPM_P1;HPM_P2
2022/06/07 00:00:57;;;;;;;12.20;11.10;;;;;;100344.08;;;;107744;1276;22705;-39
2022/06/07 00:03:24;;;;;;;12.10;11.00;;;;;;100339.80;;;;107738;1276;22536;-39
2022/06/07 00:05:51;;;;;;;12.60;11.50;;;;;;100340.06;;;;107730;1277;23904;-41
2022/06/07 00:08:19;;;;;;;12.30;11.30;;;;;;100340.41;;;;107719;1276;22977;-40
2022/06/07 00:10:46;;;;;;;13.20;12.10;;;;;;100346.13;;;;107734;1276;22539;-39
2022/06/07 00:13:14;;;;;;;13.00;11.80;;;;;;100349.30;;;;107742;1276;24362;-39
2022/06/07 00:15:41;;;;;;;12.60;11.40;;;;;;100347.20;;;;107749;1276;22833;-40
2022/06/07 00:18:08;;;;;;;12.50;11.30;;;;;;100344.78;;;;107730;1276;23122;-40
2022/06/07 00:20:36;;;;;;;13.10;12.00;;;;;;100339.73;;;;107735;1276;23355;-40
2022/06/07 00:23:03;;;;;;;11.60;10.60;;;;;;100336.55;;;;107743;1276;22538;-40
2022/06/07 00:25:30;;;;;;;12.40;11.20;;;;;;100333.11;;;;107746;1276;22647;-39
2022/06/07 00:27:58;;;;;;;13.40;12.20;;;;;;100337.23;;;;107768;1276;22539;-39
2022/06/07 00:30:25;;;;;;;13.30;12.10;;;;;;100339.58;;;;107725;1276;22987;-40
2022/06/07 00:32:53;;;;;;;12.70;11.60;;;;;;100338.73;;;;107721;1276;22483;-40
2022/06/07 00:35:21;;;;;;;13.40;12.20;;;;;;100334.30;;;;107733;1276;22575;-40
2022/06/07 00:37:48;;;;;;;13.60;12.40;;;;;;100332.93;;;;107758;1276;22624;-40
2022/06/07 00:40:16;;;;;;;14.20;12.90;;;;;;100332.02;;;;107727;1276;23023;-39
2022/06/07 00:42:43;;;;;;;13.20;12.10;;;;;;100332.50;;;;107778;1276;22538;-40
2022/06/07 00:45:10;;;;;;;13.40;12.30;;;;;;100329.52;;;;107796;1276;22554;-39
2022/06/07 00:47:38;;;;;;;13.40;12.30;;;;;;100329.84;;;;107745;1276;23025;-40
2022/06/07 00:50:05;;;;;;;15.10;13.70;;;;;;100332.61;;;;107747;1276;22885;-40
2022/06/07 00:52:33;;;;;;;13.50;12.40;;;;;;100329.05;;;;107761;1276;23163;-40
2022/06/07 00:55:00;;;;;;;14.20;12.90;;;;;;100326.73;;;;107740;1276;24470;-40
2022/06/07 00:57:27;;;;;;;14.10;12.90;;;;;;100329.88;;;;107748;1276;22679;-39
2022/06/07 00:59:55;;;;;;;14.50;13.20;;;;;;100332.13;;;;107750;1277;22527;-39
2022/06/07 01:02:22;;;;;;;14.00;12.90;;;;;;100333.89;;;;107729;1276;22572;-40
2022/06/07 01:04:49;;;;;;;15.00;13.70;;;;;;100331.15;;;;107738;1276;22581;-40
2022/06/07 01:12:47;;;;;;;14.40;13.10;;;;;;100330.33;;;;107735;1276;22648;-39
2022/06/07 01:15:15;;;;;;;15.10;13.80;;;;;;100326.28;;;;107764;1276;22723;-40
2022/06/07 01:17:42;;;;;;;15.60;14.30;;;;;;100325.52;;;;107742;1276;25932;-39
2022/06/07 01:20:10;;;;;;;15.00;13.70;;;;;;100325.70;;;;107745;1276;23162;-39
2022/06/07 01:22:37;;;;;;;14.80;13.50;;;;;;100321.86;;;;107755;1276;24246;-40
2022/06/07 01:25:05;;;;;;;15.40;14.00;;;;;;100318.99;;;;107753;1276;22535;-40
2022/06/07 01:27:32;;;;;;;14.40;13.20;;;;;;100316.23;;;;107738;1276;22576;-40
2022/06/07 01:29:59;;;;;;;15.20;13.90;;;;;;100313.27;;;;107736;1276;25399;-39
2022/06/07 01:32:27;;;;;;;15.40;14.10;;;;;;100309.62;;;;107729;1276;23133;-40
2022/06/07 01:34:54;;;;;;;15.60;14.20;;;;;;100305.42;;;;107745;1276;22545;-39
2022/06/07 01:37:21;;;;;;;15.50;14.20;;;;;;100307.94;;;;107736;1276;25307;-39
2022/06/07 01:42:45;;;;;;;15.10;13.80;;;;;;100301.94;;;;107399;1281;22625;-39
2022/06/07 01:45:13;;;;;;;15.70;14.40;;;;;;100296.24;;;;107677;1276;24357;-39
2022/06/07 01:47:40;;;;;;;16.40;15.00;;;;;;100293.71;;;;107749;1276;23169;-41
2022/06/07 01:50:08;;;;;;;16.20;14.80;;;;;;100290.60;;;;107730;1276;22539;-40
2022/06/07 01:52:36;;;;;;;16.70;15.30;;;;;;100293.26;;;;107743;1276;24332;-40
2022/06/07 01:55:03;;;;;;;16.30;14.80;;;;;;100292.58;;;;107728;1276;22597;-40
2022/06/07 01:57:30;;;;;;;15.90;14.60;;;;;;100292.20;;;;107724;1276;22484;-40
2022/06/07 01:59:59;;;;;;;16.40;14.90;;;;;;100290.77;;;;107741;1276;22757;-40
2022/06/07 02:02:27;;;;;;;16.00;14.70;;;;;;100289.21;;;;107734;1276;24316;-40
2022/06/07 02:04:56;;;;;;;15.10;13.90;;;;;;100288.41;;;;107749;1276;22531;-40
2022/06/07 02:07:24;;;;;;;15.90;14.50;;;;;;100288.65;;;;107736;1276;23858;-41
2022/06/07 02:09:51;;;;;;;15.20;13.90;;;;;;100289.66;;;;107750;1276;22525;-41
2022/06/07 02:12:18;;;;;;;15.20;14.00;;;;;;100287.08;;;;107686;1277;24223;-40
2022/06/07 02:14:46;;;;;;;15.60;14.30;;;;;;100285.20;;;;107727;1276;22547;-40
2022/06/07 02:17:14;;;;;;;15.50;14.10;;;;;;100288.67;;;;107766;1276;25992;-41
2022/06/07 02:19:42;;;;;;;16.30;14.90;;;;;;100290.14;;;;107747;1276;22549;-41
2022/06/07 02:22:09;;;;;;;14.80;13.60;;;;;;100291.20;;;;107742;1276;23900;-41
2022/06/07 02:24:37;;;;;;;14.70;13.50;;;;;;100293.20;;;;107750;1277;22564;-42
2022/06/07 02:27:04;;;;;;;15.10;13.90;;;;;;100290.37;;;;107744;1276;23228;-41
2022/06/07 02:29:31;;;;;;;15.30;14.00;;;;;;100292.67;;;;107747;1276;23843;-41
2022/06/07 02:31:58;;;;;;;14.80;13.60;;;;;;100296.00;;;;107747;1276;22949;-39
2022/06/07 02:34:26;;;;;;;14.80;13.60;;;;;;100300.13;;;;107753;1276;22544;-38
2022/06/07 02:36:53;;;;;;;14.30;13.10;;;;;;100302.13;;;;107742;1277;23096;-39
2022/06/07 02:39:21;;;;;;;14.80;13.50;;;;;;100305.45;;;;107754;1277;24389;-39
2022/06/07 02:41:48;;;;;;;14.70;13.50;;;;;;100302.18;;;;107746;1277;22649;-39
2022/06/07 02:44:16;;;;;;;15.10;13.80;;;;;;100296.91;;;;107745;1277;22532;-38
2022/06/07 02:46:43;;;;;;;14.70;13.50;;;;;;100294.62;;;;107756;1277;24374;-42
2022/06/07 02:49:10;;;;;;;14.00;12.90;;;;;;100289.17;;;;107730;1276;22669;-40
2022/06/07 02:51:38;;;;;;;13.90;12.80;;;;;;100283.30;;;;107747;1276;25383;-42
2022/06/07 02:54:05;;;;;;;14.60;13.40;;;;;;100284.18;;;;107754;1276;22571;-40
2022/06/07 02:56:32;;;;;;;14.80;13.60;;;;;;100290.67;;;;107757;1277;22555;-41
2022/06/07 02:59:00;;;;;;;14.40;13.20;;;;;;100294.56;;;;107749;1277;24235;-41
2022/06/07 03:01:28;;;;;;;14.90;13.60;;;;;;100300.86;;;;107731;1277;25389;-41
2022/06/07 03:03:58;;;;;;;14.70;13.50;;;;;;100304.38;;;;107714;1277;22541;-43
2022/06/07 03:06:25;;;;;;;15.00;13.80;;;;;;100306.13;;;;107756;1276;22540;-41
2022/06/07 03:08:53;;;;;;;15.00;13.70;;;;;;100305.80;;;;107746;1276;25381;-41
2022/06/07 03:11:21;;;;;;;14.50;13.30;;;;;;100302.21;;;;107733;1277;23171;-42
2022/06/07 03:13:48;;;;;;;14.40;13.20;;;;;;100301.44;;;;107756;1276;22625;-40
2022/06/07 03:16:16;;;;;;;14.70;13.50;;;;;;100299.20;;;;107740;1277;24242;-38
2022/06/07 03:18:43;;;;;;;14.40;13.20;;;;;;100297.24;;;;107754;1278;22689;-39
2022/06/07 03:21:11;;;;;;;15.10;13.90;;;;;;100300.34;;;;107763;1277;22792;-39
2022/06/07 03:23:38;;;;;;;14.60;13.40;;;;;;100300.75;;;;107749;1277;22585;-40
2022/06/07 03:26:05;;;;;;;15.20;14.00;;;;;;100298.86;;;;107742;1277;22667;-38
2022/06/07 03:28:32;;;;;;;14.40;13.30;;;;;;100297.61;;;;107721;1279;22535;-39
2022/06/07 03:31:00;;;;;;;14.50;13.30;;;;;;100295.40;;;;107740;1276;23295;-39
2022/06/07 03:33:27;;;;;;;15.50;14.30;;;;;;100292.59;;;;107759;1277;25380;-38
2022/06/07 03:35:55;;;;;;;15.80;14.30;;;;;;100290.30;;;;107734;1278;23224;-39
2022/06/07 03:38:22;;;;;;;15.60;14.30;;;;;;100287.02;;;;107764;1277;22558;-39
2022/06/07 03:40:49;;;;;;;15.60;14.30;;;;;;100284.78;;;;107728;1276;23283;-39
2022/06/07 03:43:17;;;;;;;15.60;14.30;;;;;;100282.16;;;;107752;1278;23119;-38
2022/06/07 03:45:44;;;;;;;16.60;15.20;;;;;;100283.11;;;;107732;1277;23159;-38
2022/06/07 03:48:11;;;;;;;15.30;14.10;;;;;;100284.61;;;;107758;1278;22545;-38
2022/06/07 03:50:39;;;;;;;15.50;14.20;;;;;;100290.70;;;;107747;1280;22699;-40
2022/06/07 03:53:06;;;;;;;15.00;13.80;;;;;;100293.28;;;;107753;1277;25420;-39
2022/06/07 03:55:33;;;;;;;16.10;14.70;;;;;;100288.91;;;;107751;1277;22577;-39
2022/06/07 03:58:01;;;;;;;14.90;13.70;;;;;;100283.25;;;;107769;1277;25365;-39
2022/06/07 04:00:28;;;;;;;16.00;14.70;;;;;;100282.05;;;;107752;1276;24352;-39
2022/06/07 04:02:55;;;;;;;15.70;14.50;;;;;;100283.05;;;;107748;1277;22837;-39
2022/06/07 04:05:23;;;;;;;16.30;15.00;;;;;;100282.51;;;;107729;1277;22532;-39
2022/06/07 04:10:35;;;;;;;15.80;14.50;;;;;;100278.23;;;;107746;1278;22632;-39
2022/06/07 04:13:03;;;;;;;16.30;14.90;;;;;;100274.59;;;;107740;1278;25423;-39
2022/06/07 04:15:30;;;;;;;16.00;14.70;;;;;;100272.00;;;;107777;1278;23327;-39
2022/06/07 04:17:59;;;;;;;17.10;15.70;;;;;;100269.42;;;;107757;1276;22564;-39
2022/06/07 04:20:26;;;;;;;16.80;15.40;;;;;;100269.38;;;;107762;1275;24238;-38
2022/06/07 04:22:54;;;;;;;16.10;14.80;;;;;;100269.06;;;;107751;1277;23347;-39
2022/06/07 04:25:21;;;;;;;16.10;14.80;;;;;;100269.32;;;;107762;1277;22526;-40
2022/06/07 04:27:48;;;;;;;16.20;14.90;;;;;;100267.00;;;;107756;1278;23100;-39
2022/06/07 04:30:16;;;;;;;16.20;14.90;;;;;;100268.95;;;;107756;1276;24017;-39
2022/06/07 04:32:46;;;;;;;15.60;14.30;;;;;;100267.72;;;;107765;1277;22594;-39
2022/06/07 04:35:15;;;;;;;15.10;13.90;;;;;;100266.34;;;;107720;1276;22833;-39
2022/06/07 04:37:42;;;;;;;16.30;15.00;;;;;;100269.04;;;;107767;1277;22527;-39
2022/06/07 04:40:10;;;;;;;15.60;14.40;;;;;;100271.98;;;;107730;1276;22645;-39
2022/06/07 04:42:37;;;;;;;16.30;15.00;;;;;;100273.70;;;;107736;1277;22529;-41
2022/06/07 04:45:06;;;;;;;16.40;15.00;;;;;;100275.27;;;;107759;1277;25379;-41
2022/06/07 04:47:34;;;;;;;15.70;14.40;;;;;;100277.02;;;;107759;1276;22657;-40
2022/06/07 04:50:01;;;;;;;16.70;15.30;;;;;;100278.53;;;;107748;1277;22560;-39
2022/06/07 04:52:28;;;;;;;17.00;15.70;;;;;;100281.54;;;;107747;1277;25471;-39
2022/06/07 04:54:56;;;;;;;19.00;17.20;;;;;;100282.44;;;;107748;1277;23066;-41
2022/06/07 04:57:23;;;;;;;19.40;17.70;;;;;;100281.57;;;;107735;1277;22566;-41
2022/06/07 04:59:50;;;;;;;19.90;18.20;;;;;;100281.70;;;;107692;1277;25383;-41
2022/06/07 05:02:18;;;;;;;18.90;17.30;;;;;;100281.61;;;;107740;1277;22564;-42
2022/06/07 05:04:46;;;;;;;20.40;18.50;;;;;;100283.80;;;;107702;1276;24452;-42
2022/06/07 05:07:13;;;;;;;18.90;17.40;;;;;;100287.20;;;;107736;1277;25310;-41
2022/06/07 05:09:40;;;;;;;19.80;18.00;;;;;;100289.09;;;;107712;1277;24320;-41
2022/06/07 05:12:09;;;;;;;19.00;17.40;;;;;;100293.98;;;;107722;1277;22541;-41
2022/06/07 05:14:36;;;;;;;18.40;16.90;;;;;;100286.56;;;;107711;1277;24616;-41
2022/06/07 05:17:03;;;;;;;17.60;16.20;;;;;;100286.88;;;;107728;1277;22559;-41
2022/06/07 05:19:33;;;;;;;18.20;16.60;;;;;;100289.20;;;;107411;1276;417918;-43
2022/06/07 05:22:00;;;;;;;17.70;16.20;;;;;;100286.88;;;;107723;1276;24342;-43
2022/06/07 05:24:27;;;;;;;16.90;15.40;;;;;;100286.29;;;;107722;1277;22800;-42
2022/06/07 05:26:55;;;;;;;17.70;16.30;;;;;;100289.56;;;;107727;1276;22837;-42
2022/06/07 05:29:22;;;;;;;18.30;16.80;;;;;;100291.14;;;;107727;1275;22496;-41
2022/06/07 05:31:50;;;;;;;17.60;16.20;;;;;;100291.59;;;;107711;1276;22696;-42
2022/06/07 05:34:17;;;;;;;17.60;16.20;;;;;;100289.65;;;;107710;1276;25312;-40
2022/06/07 05:36:45;;;;;;;17.30;15.90;;;;;;100287.77;;;;107741;1276;22539;-40
2022/06/07 05:39:12;;;;;;;17.50;16.10;;;;;;100287.37;;;;107701;1276;25871;-40
2022/06/07 05:41:40;;;;;;;17.40;16.00;;;;;;100288.66;;;;107712;1276;22661;-42
2022/06/07 05:44:07;;;;;;;17.80;16.40;;;;;;100291.98;;;;107683;1276;23170;-41
2022/06/07 05:46:35;;;;;;;17.20;15.80;;;;;;100293.13;;;;107707;1276;24396;-41
2022/06/07 05:49:03;;;;;;;17.10;15.70;;;;;;100293.34;;;;107726;1276;22991;-41
2022/06/07 05:51:31;;;;;;;18.30;16.80;;;;;;100292.02;;;;107721;1276;22695;-42
2022/06/07 05:53:58;;;;;;;17.80;16.30;;;;;;100293.27;;;;107735;1276;22532;-43
2022/06/07 05:56:25;;;;;;;18.00;16.50;;;;;;100292.58;;;;107720;1276;22943;-42
2022/06/07 05:58:53;;;;;;;17.00;15.60;;;;;;100290.61;;;;107717;1276;26102;-42
2022/06/07 06:01:20;;;;;;;17.00;15.50;;;;;;100291.06;;;;107711;1276;23131;-42
2022/06/07 06:03:48;;;;;;;17.00;15.70;;;;;;100293.02;;;;107692;1276;22921;-43
2022/06/07 06:06:15;;;;;;;17.40;15.80;;;;;;100294.41;;;;107712;1276;23101;-45
2022/06/07 06:11:28;;;;;;;16.60;15.10;;;;;;100291.09;;;;107740;1276;23200;-44
2022/06/07 06:13:56;;;;;;;17.20;15.70;;;;;;100286.42;;;;107727;1277;25934;-42
2022/06/07 06:16:23;;;;;;;16.20;14.70;;;;;;100285.44;;;;107755;1276;22568;-41
2022/06/07 06:18:50;;;;;;;16.20;14.90;;;;;;100282.71;;;;107728;1276;23917;-42
2022/06/07 06:21:18;;;;;;;16.20;14.80;;;;;;100281.61;;;;107749;1276;22546;-42
2022/06/07 06:23:45;;;;;;;16.40;15.00;;;;;;100282.16;;;;107747;1276;22839;-42
2022/06/07 06:26:13;;;;;;;16.70;15.30;;;;;;100279.06;;;;107712;1276;24396;-44
2022/06/07 06:28:41;;;;;;;16.00;14.70;;;;;;100278.55;;;;107725;1276;22568;-43
2022/06/07 06:31:09;;;;;;;15.40;14.00;;;;;;100275.45;;;;107717;1276;22658;-41
2022/06/07 06:33:37;;;;;;;15.30;14.00;;;;;;100274.81;;;;107709;1276;22533;-42
2022/06/07 06:36:04;;;;;;;15.30;13.90;;;;;;100275.40;;;;107711;1276;22544;-41
2022/06/07 06:38:32;;;;;;;15.70;14.40;;;;;;100273.77;;;;107714;1276;22660;-41
2022/06/07 06:41:00;;;;;;;14.40;13.10;;;;;;100276.30;;;;107700;1276;22561;-41
2022/06/07 06:43:27;;;;;;;14.80;13.40;;;;;;100276.41;;;;107701;1276;22670;-41
2022/06/07 06:45:54;;;;;;;14.10;12.90;;;;;;100276.14;;;;107709;1276;22538;-41
2022/06/07 06:48:22;;;;;;;15.40;14.00;;;;;;100274.98;;;;107710;1276;22719;-42
2022/06/07 06:50:50;;;;;;;15.30;14.00;;;;;;100272.09;;;;107726;1276;23154;-43
2022/06/07 06:53:17;;;;;;;15.20;13.80;;;;;;100275.20;;;;107727;1276;25287;-41
2022/06/07 06:55:46;;;;;;;14.60;13.40;;;;;;100274.27;;;;107711;1276;22646;-41
2022/06/07 06:58:14;;;;;;;15.20;13.90;;;;;;100270.84;;;;107749;1276;22925;-41
2022/06/07 07:00:42;;;;;;;14.20;12.90;;;;;;100265.86;;;;107722;1276;22565;-41
2022/06/07 07:03:09;;;;;;;14.70;13.40;;;;;;100263.74;;;;107707;1276;22555;-41
2022/06/07 07:05:36;;;;;;;14.70;13.50;;;;;;100264.25;;;;107716;1276;22631;-43
2022/06/07 07:08:04;;;;;;;14.20;13.00;;;;;;100262.38;;;;107713;1276;23006;-41
2022/06/07 07:10:31;;;;;;;14.40;13.20;;;;;;100259.87;;;;107699;1276;22508;-42
2022/06/07 07:12:58;;;;;;;12.90;11.80;;;;;;100260.70;;;;107717;1276;22590;-41
2022/06/07 07:15:26;;;;;;;12.90;11.70;;;;;;100262.89;;;;107702;1276;25363;-41
2022/06/07 07:17:53;;;;;;;15.00;13.70;;;;;;100263.70;;;;107686;1276;24367;-41
2022/06/07 07:20:21;;;;;;;13.70;12.50;;;;;;100261.11;;;;107711;1276;22696;-43
2022/06/07 07:22:48;;;;;;;14.90;13.60;;;;;;100256.20;;;;107723;1276;22645;-39
2022/06/07 07:25:15;;;;;;;14.20;13.00;;;;;;100253.63;;;;107736;1276;22634;-40
2022/06/07 07:27:44;;;;;;;15.50;14.10;;;;;;100255.70;;;;107751;1276;22711;-40
2022/06/07 07:30:12;;;;;;;14.20;12.90;;;;;;100257.95;;;;107771;1276;24240;-41
2022/06/07 07:32:39;;;;;;;15.90;14.60;;;;;;100256.63;;;;107746;1276;22540;-40
2022/06/07 07:35:06;;;;;;;15.70;14.30;;;;;;100259.83;;;;107755;1276;22703;-41
2022/06/07 07:37:34;;;;;;;15.60;14.20;;;;;;100261.36;;;;107759;1276;22531;-40
2022/06/07 07:40:01;;;;;;;15.70;14.10;;;;;;100258.76;;;;107757;1276;23058;-40
2022/06/07 07:42:29;;;;;;;15.80;14.50;;;;;;100257.61;;;;107761;1275;24269;-40
2022/06/07 07:44:56;;;;;;;15.60;14.20;;;;;;100256.27;;;;107766;1276;22538;-40
2022/06/07 07:47:23;;;;;;;15.30;14.00;;;;;;100256.02;;;;107734;1276;23235;-40
2022/06/07 07:49:52;;;;;;;15.50;14.00;;;;;;100253.44;;;;107722;1276;22560;-40
2022/06/07 07:52:19;;;;;;;16.00;14.60;;;;;;100251.08;;;;107763;1276;24173;-41
2022/06/07 07:54:47;;;;;;;15.10;13.60;;;;;;100252.77;;;;107716;1276;22552;-40
2022/06/07 07:57:14;;;;;;;15.20;13.80;;;;;;100250.50;;;;107690;1276;24282;-42
2022/06/07 07:59:42;;;;;;;16.50;14.80;;;;;;100252.11;;;;107677;1275;22721;-39
2022/06/07 08:02:09;;;;;;;16.10;14.30;;;;;;100253.20;;;;107746;1276;23118;-42
2022/06/07 08:04:36;;;;;;;15.80;14.40;;;;;;100249.85;;;;107756;1276;22565;-39
2022/06/07 08:07:03;;;;;;;14.70;13.30;;;;;;100244.67;;;;107774;1276;22550;-40
2022/06/07 08:09:31;;;;;;;15.30;13.90;;;;;;100242.59;;;;107730;1276;23993;-39
2022/06/07 08:11:59;;;;;;;15.20;13.60;;;;;;100244.42;;;;107683;1276;23090;-43
2022/06/07 08:14:26;;;;;;;14.00;12.70;;;;;;100239.97;;;;107715;1276;22541;-44
2022/06/07 08:16:55;;;;;;;14.20;12.80;;;;;;100239.31;;;;107735;1275;22993;-42
2022/06/07 08:19:22;;;;;;;14.40;13.10;;;;;;100240.27;;;;107733;1276;23114;-39
2022/06/07 08:21:50;;;;;;;14.60;13.30;;;;;;100238.90;;;;107715;1276;25388;-39
2022/06/07 08:24:17;;;;;;;14.20;12.70;;;;;;100241.16;;;;107721;1276;24283;-39
2022/06/07 08:26:46;;;;;;;14.90;13.50;;;;;;100242.97;;;;107740;1276;25369;-39
2022/06/07 08:29:13;;;;;;;13.50;12.30;;;;;;100243.41;;;;107746;1274;22555;-39
2022/06/07 08:31:41;;;;;;;14.10;12.90;;;;;;100245.48;;;;107748;1276;22705;-38
2022/06/07 08:39:46;;;;;;;13.60;12.30;;;;;;100244.63;;;;107761;1275;22483;-38
2022/06/07 08:42:14;;;;;;;14.20;12.80;;;;;;100240.58;;;;107712;1276;22547;-38
2022/06/07 08:44:41;;;;;;;12.50;11.40;;;;;;100241.64;;;;107728;1276;22628;-37
2022/06/07 08:47:08;;;;;;;13.20;11.90;;;;;;100242.70;;;;107690;1276;22702;-39
2022/06/07 08:49:36;;;;;;;12.60;11.50;;;;;;100244.10;;;;107673;1276;24464;-39
2022/06/07 08:52:03;;;;;;;13.40;12.20;;;;;;100239.89;;;;107732;1276;22562;-37
2022/06/07 08:54:31;;;;;;;13.00;11.80;;;;;;100238.64;;;;107751;1276;23832;-39
2022/06/07 08:56:59;;;;;;;13.20;11.70;;;;;;100236.94;;;;107673;1274;22539;-43
2022/06/07 08:59:26;;;;;;;13.30;12.00;;;;;;100238.36;;;;107678;1276;22530;-43
2022/06/07 09:01:54;;;;;;;12.80;11.60;;;;;;100243.89;;;;107648;1276;22555;-43
2022/06/07 09:04:21;;;;;;;13.30;12.00;;;;;;100241.27;;;;107641;1276;25943;-42
2022/06/07 09:06:49;;;;;;;12.40;11.30;;;;;;100241.56;;;;107682;1276;23073;-42
2022/06/07 09:09:16;;;;;;;12.00;10.90;;;;;;100243.45;;;;107732;1276;22712;-40
2022/06/07 09:14:30;;;;;;;12.50;11.30;;;;;;100241.04;;;;107746;1276;22539;-41
2022/06/07 09:16:58;;;;;;;11.40;10.40;;;;;;100234.27;;;;107738;1276;22547;-40
2022/06/07 09:19:26;;;;;;;12.10;11.00;;;;;;100231.42;;;;107755;1276;22607;-44
2022/06/07 09:21:53;;;;;;;12.60;11.40;;;;;;100226.66;;;;107744;1276;22535;-43
2022/06/07 09:24:21;;;;;;;12.60;11.40;;;;;;100228.86;;;;107734;1276;22519;-42
2022/06/07 09:26:49;;;;;;;12.40;11.30;;;;;;100227.98;;;;107716;1275;23246;-44
2022/06/07 09:29:16;;;;;;;12.80;11.60;;;;;;100223.17;;;;107730;1276;22749;-43
2022/06/07 09:31:43;;;;;;;12.90;11.70;;;;;;100223.83;;;;107749;1276;22766;-43
2022/06/07 09:34:11;;;;;;;11.80;10.70;;;;;;100220.23;;;;107749;1274;24212;-43
2022/06/07 09:36:38;;;;;;;11.70;10.70;;;;;;100218.45;;;;107733;1276;23160;-43
2022/06/07 09:39:06;;;;;;;12.80;11.60;;;;;;100221.54;;;;107745;1276;22862;-42
2022/06/07 09:41:37;;;;;;;12.20;11.00;;;;;;100222.91;;;;107742;1276;22695;-44
2022/06/07 09:44:05;;;;;;;11.90;10.80;;;;;;100220.53;;;;107736;1276;24234;-43
2022/06/07 09:46:32;;;;;;;11.90;10.90;;;;;;100219.81;;;;107738;1276;23290;-43
2022/06/07 09:49:01;;;;;;;11.70;10.60;;;;;;100215.73;;;;107621;1276;22807;-44
2022/06/07 09:51:29;;;;;;;11.70;10.70;;;;;;100216.71;;;;107598;1276;23141;-43
2022/06/07 09:53:56;;;;;;;11.70;10.70;;;;;;100211.04;;;;107602;1276;22557;-44
2022/06/07 09:56:24;;;;;;;12.50;11.40;;;;;;100211.84;;;;107594;1276;22593;-42
2022/06/07 09:58:51;;;;;;;12.00;10.90;;;;;;100211.84;;;;107625;1276;24281;-42
2022/06/07 10:01:20;;;;;;;12.00;11.00;;;;;;100209.98;;;;109156;1276;25380;-42
2022/06/07 10:03:47;;;;;;;12.30;11.30;;;;;;100207.17;;;;107685;1276;22659;-42
2022/06/07 10:06:15;;;;;;;11.70;10.70;;;;;;100205.70;;;;107768;1276;25249;-42
2022/06/07 10:08:42;;;;;;;11.80;10.80;;;;;;100204.23;;;;107712;1275;22818;-44
2022/06/07 10:11:10;;;;;;;12.50;11.10;;;;;;100201.91;;;;107749;1276;22533;-43
2022/06/07 10:13:38;;;;;;;11.70;10.70;;;;;;100203.23;;;;107796;1276;24361;-43
2022/06/07 10:16:05;;;;;;;12.50;11.40;;;;;;100201.90;;;;107756;1276;24218;-43
2022/06/07 10:18:33;;;;;;;12.30;11.20;;;;;;100201.91;;;;107681;1276;22631;-43
2022/06/07 10:21:00;;;;;;;12.40;11.30;;;;;;100202.59;;;;107714;1276;22558;-43
2022/06/07 10:23:28;;;;;;;12.50;11.40;;;;;;100203.08;;;;107694;1275;22561;-37
2022/06/07 10:25:57;;;;;;;12.20;11.10;;;;;;100198.58;;;;107731;1273;22853;-36
2022/06/07 10:28:24;;;;;;;11.60;10.50;;;;;;100197.17;;;;107720;1275;24223;-37
2022/06/07 10:30:52;;;;;;;11.30;10.30;;;;;;100196.09;;;;107739;1276;22652;-38
2022/06/07 10:33:19;;;;;;;11.70;10.70;;;;;;100197.41;;;;107718;1275;22904;-39
2022/06/07 10:35:46;;;;;;;11.20;10.30;;;;;;100194.95;;;;107638;1274;22575;-38
2022/06/07 10:38:14;;;;;;;11.40;10.30;;;;;;100197.98;;;;107702;1276;23190;-38
2022/06/07 10:40:42;;;;;;;11.40;10.30;;;;;;100198.63;;;;107709;1276;22555;-37
2022/06/07 10:43:09;;;;;;;11.00;10.00;;;;;;100200.79;;;;107706;1276;22474;-38
2022/06/07 10:45:37;;;;;;;11.20;10.30;;;;;;100200.15;;;;107643;1276;22558;-42
2022/06/07 10:48:05;;;;;;;11.90;10.80;;;;;;100199.89;;;;107724;1276;22849;-39
2022/06/07 10:50:32;;;;;;;11.10;10.10;;;;;;100197.91;;;;107708;1276;23910;-40
2022/06/07 10:53:00;;;;;;;11.50;10.50;;;;;;100197.98;;;;107712;1276;22544;-39
2022/06/07 10:55:27;;;;;;;11.30;10.30;;;;;;100195.05;;;;107677;1276;22555;-38
2022/06/07 10:57:54;;;;;;;11.90;10.50;;;;;;100191.03;;;;107734;1276;25390;-37
2022/06/07 11:00:22;;;;;;;11.80;10.80;;;;;;100191.36;;;;107731;1276;24221;-38
2022/06/07 11:02:49;;;;;;;10.80;9.80;;;;;;100192.30;;;;107713;1276;22671;-37
2022/06/07 11:10:55;;;;;;;11.50;10.50;;;;;;100187.16;;;;107706;1276;22656;-41
2022/06/07 11:13:22;;;;;;;11.40;10.40;;;;;;100186.63;;;;107693;1276;22544;-43
2022/06/07 11:15:50;;;;;;;11.10;10.10;;;;;;100185.09;;;;107732;1276;22559;-41
2022/06/07 11:18:17;;;;;;;10.80;9.90;;;;;;100181.35;;;;107682;1276;22575;-41
2022/06/07 11:20:45;;;;;;;12.10;10.90;;;;;;100175.42;;;;107689;1276;22564;-42
2022/06/07 11:23:13;;;;;;;12.00;11.00;;;;;;100175.60;;;;107712;1276;25253;-41
2022/06/07 11:25:41;;;;;;;12.20;11.00;;;;;;100171.90;;;;107725;1276;22720;-39
2022/06/07 11:28:09;;;;;;;11.30;10.30;;;;;;100171.40;;;;107704;1276;22564;-41
2022/06/07 11:30:37;;;;;;;10.60;9.70;;;;;;100170.40;;;;107739;1276;22708;-42
2022/06/07 11:33:06;;;;;;;11.20;10.20;;;;;;100170.52;;;;107739;1276;22551;-41
2022/06/07 11:35:33;;;;;;;10.30;9.40;;;;;;100170.33;;;;107722;1276;24367;-41
2022/06/07 11:38:01;;;;;;;11.50;10.60;;;;;;100164.68;;;;107714;1276;22837;-39
2022/06/07 11:40:28;;;;;;;11.30;10.20;;;;;;100162.73;;;;107745;1276;22550;-40
2022/06/07 11:42:55;;;;;;;11.50;10.50;;;;;;100160.96;;;;107722;1276;23102;-40
2022/06/07 11:45:23;;;;;;;11.40;10.40;;;;;;100155.35;;;;107734;1276;22536;-41
2022/06/07 11:47:51;;;;;;;11.70;10.70;;;;;;100154.76;;;;107715;1276;22541;-40
2022/06/07 11:50:18;;;;;;;11.70;10.60;;;;;;100155.55;;;;107692;1276;22531;-39
2022/06/07 11:52:46;;;;;;;11.40;10.40;;;;;;100150.90;;;;107727;1276;23149;-39
2022/06/07 11:55:13;;;;;;;10.80;9.90;;;;;;100146.44;;;;107708;1276;22543;-40
2022/06/07 11:57:40;;;;;;;11.00;10.00;;;;;;100146.84;;;;107725;1276;23522;-41
2022/06/07 12:00:08;;;;;;;11.10;10.10;;;;;;100143.63;;;;107709;1276;23137;-41
2022/06/07 12:02:36;;;;;;;10.90;9.90;;;;;;100145.70;;;;107707;1276;22561;-41
2022/06/07 12:05:03;;;;;;;10.70;9.70;;;;;;100145.28;;;;107741;1276;22631;-41
2022/06/07 12:07:32;;;;;;;11.20;10.20;;;;;;100142.04;;;;107753;1276;22565;-41
2022/06/07 12:10:00;;;;;;;11.60;10.40;;;;;;100137.77;;;;107736;1276;22782;-41
2022/06/07 12:12:31;;;;;;;11.50;10.50;;;;;;100140.62;;;;107622;1276;22574;-41
2022/06/07 12:14:59;;;;;;;11.50;10.50;;;;;;100138.93;;;;107687;1276;25423;-40
2022/06/07 12:17:26;;;;;;;11.80;10.70;;;;;;100135.98;;;;107748;1276;22679;-41
2022/06/07 12:19:54;;;;;;;11.80;10.70;;;;;;100134.10;;;;107721;1276;23474;-41
2022/06/07 12:22:21;;;;;;;12.30;11.30;;;;;;100130.55;;;;107742;1276;22754;-41
2022/06/07 12:24:49;;;;;;;11.40;10.40;;;;;;100127.61;;;;107722;1276;22579;-37
2022/06/07 12:27:17;;;;;;;12.30;11.00;;;;;;100128.33;;;;107708;1276;22732;-39
2022/06/07 12:29:45;;;;;;;12.40;11.10;;;;;;100126.72;;;;107691;1276;22841;-39
2022/06/07 12:32:12;;;;;;;12.40;11.10;;;;;;100126.02;;;;107727;1276;23109;-41
2022/06/07 12:34:39;;;;;;;12.70;11.60;;;;;;100127.42;;;;107732;1276;24461;-40
2022/06/07 12:37:07;;;;;;;11.70;10.70;;;;;;100123.27;;;;107739;1276;22538;-42
2022/06/07 12:39:34;;;;;;;12.30;11.00;;;;;;100121.79;;;;107713;1276;23198;-37
2022/06/07 12:42:03;;;;;;;11.80;10.70;;;;;;100114.33;;;;107705;1276;22679;-36
2022/06/07 12:44:30;;;;;;;12.30;11.10;;;;;;100109.23;;;;107756;1276;24342;-39
2022/06/07 12:46:58;;;;;;;11.40;10.40;;;;;;100110.90;;;;107730;1276;24223;-37
2022/06/07 12:49:25;;;;;;;11.90;10.70;;;;;;100104.61;;;;107723;1276;22564;-37
2022/06/07 12:51:52;;;;;;;12.00;10.90;;;;;;100102.52;;;;107743;1276;23953;-42
2022/06/07 12:54:20;;;;;;;11.50;10.50;;;;;;100101.86;;;;107690;1276;22604;-39
2022/06/07 12:56:48;;;;;;;11.50;10.40;;;;;;100101.67;;;;107704;1276;25296;-40